sensor_id;sensor_type;location;lat;lon;timestamp;pressure;altitude;pressure_sealevel;temperature;humidity
44140;BME280;29803;51.048;4.686;2022-10-10T00:01:57;101406.09;;;5.71;100.00
44140;BME280;29803;51.048;4.686;2022-10-10T00:04:27;101413.03;;;5.74;100.00
44140;BME280;29803;51.048;4.686;2022-10-10T00:06:57;101414.34;;;5.68;100.00
44140;BME280;29803;51.048;4.686;2022-10-10T00:09:28;101410.09;;;5.65;100.00
44140;BME280;29803;51.048;4.686;2022-10-10T00:11:58;101413.25;;;5.59;100.00
44140;BME280;29803;51.048;4.686;2022-10-10T00:14:29;101407.31;;;5.56;100.00
44140;BME280;29803;51.048;4.686;2022-10-10T00:16:59;101409.97;;;5.56;100.00
44140;BME280;29803;51.048;4.686;2022-10-10T00:19:30;101409.97;;;5.56;100.00
44140;BME280;29803;51.048;4.686;2022-10-10T00:22:00;101407.94;;;5.59;100.00
44140;BME280;29803;51.048;4.686;2022-10-10T00:24:30;101408.06;;;5.58;100.00
44140;BME280;29803;51.048;4.686;2022-10-10T00:27:01;101403.69;;;5.57;100.00
44140;BME280;29803;51.048;4.686;2022-10-10T00:29:31;101406.59;;;5.54;100.00
44140;BME280;29803;51.048;4.686;2022-10-10T00:32:02;101410.47;;;5.50;100.00
44140;BME280;29803;51.048;4.686;2022-10-10T00:34:32;101408.78;;;5.49;100.00
44140;BME280;29803;51.048;4.686;2022-10-10T00:37:03;101399.31;;;5.44;100.00
44140;BME280;29803;51.048;4.686;2022-10-10T00:39:33;101403.19;;;5.40;100.00
44140;BME280;29803;51.048;4.686;2022-10-10T00:42:04;101404.28;;;5.38;100.00
44140;BME280;29803;51.048;4.686;2022-10-10T00:44:36;101396.75;;;5.32;100.00
44140;BME280;29803;51.048;4.686;2022-10-10T00:47:06;101398.84;;;5.28;100.00
44140;BME280;29803;51.048;4.686;2022-10-10T00:49:40;101394.72;;;5.24;100.00
44140;BME280;29803;51.048;4.686;2022-10-10T00:52:11;101398.56;;;5.20;100.00
44140;BME280;29803;51.048;4.686;2022-10-10T00:54:41;101400.50;;;5.18;100.00
44140;BME280;29803;51.048;4.686;2022-10-10T00:57:13;101394.56;;;5.14;100.00
44140;BME280;29803;51.048;4.686;2022-10-10T00:59:44;101400.94;;;5.12;100.00
44140;BME280;29803;51.048;4.686;2022-10-10T01:02:15;101392.47;;;5.07;100.00
44140;BME280;29803;51.048;4.686;2022-10-10T01:04:46;101390.06;;;5.04;100.00
44140;BME280;29803;51.048;4.686;2022-10-10T01:07:21;101392.84;;;5.02;100.00
44140;BME280;29803;51.048;4.686;2022-10-10T01:09:56;101392.09;;;5.00;100.00
44140;BME280;29803;51.048;4.686;2022-10-10T01:12:41;101388.81;;;4.97;100.00
44140;BME280;29803;51.048;4.686;2022-10-10T01:24:06;101385.09;;;4.88;100.00
44140;BME280;29803;51.048;4.686;2022-10-10T01:27:02;101385.44;;;4.83;100.00
44140;BME280;29803;51.048;4.686;2022-10-10T01:32:49;101381.75;;;4.73;100.00
44140;BME280;29803;51.048;4.686;2022-10-10T01:35:50;101378.59;;;4.68;100.00
44140;BME280;29803;51.048;4.686;2022-10-10T01:41:12;101382.78;;;4.59;100.00
44140;BME280;29803;51.048;4.686;2022-10-10T01:43:44;101375.16;;;4.55;100.00
44140;BME280;29803;51.048;4.686;2022-10-10T01:46:16;101382.41;;;4.53;100.00
44140;BME280;29803;51.048;4.686;2022-10-10T01:48:51;101380.94;;;4.49;100.00
44140;BME280;29803;51.048;4.686;2022-10-10T01:51:49;101379.25;;;4.48;100.00
44140;BME280;29803;51.048;4.686;2022-10-10T01:54:48;101369.56;;;4.47;100.00
44140;BME280;29803;51.048;4.686;2022-10-10T02:00:08;101365.00;;;4.49;100.00
44140;BME280;29803;51.048;4.686;2022-10-10T02:03:04;101366.69;;;4.50;100.00
44140;BME280;29803;51.048;4.686;2022-10-10T02:05:44;101360.66;;;4.48;100.00
44140;BME280;29803;51.048;4.686;2022-10-10T02:08:24;101364.38;;;4.45;100.00
44140;BME280;29803;51.048;4.686;2022-10-10T02:11:06;101361.09;;;4.41;100.00
44140;BME280;29803;51.048;4.686;2022-10-10T02:14:09;101360.38;;;4.39;100.00
44140;BME280;29803;51.048;4.686;2022-10-10T02:16:44;101358.81;;;4.37;100.00
44140;BME280;29803;51.048;4.686;2022-10-10T02:19:18;101359.63;;;4.37;100.00
44140;BME280;29803;51.048;4.686;2022-10-10T02:21:50;101352.72;;;4.35;100.00
44140;BME280;29803;51.048;4.686;2022-10-10T02:24:23;101356.34;;;4.34;100.00
44140;BME280;29803;51.048;4.686;2022-10-10T02:27:08;101353.81;;;4.32;100.00
44140;BME280;29803;51.048;4.686;2022-10-10T02:29:41;101352.22;;;4.30;100.00
44140;BME280;29803;51.048;4.686;2022-10-10T02:32:31;101351.38;;;4.29;100.00
44140;BME280;29803;51.048;4.686;2022-10-10T02:35:16;101342.78;;;4.26;100.00
44140;BME280;29803;51.048;4.686;2022-10-10T02:37:47;101342.91;;;4.24;100.00
44140;BME280;29803;51.048;4.686;2022-10-10T02:40:24;101339.53;;;4.22;100.00
44140;BME280;29803;51.048;4.686;2022-10-10T02:42:58;101338.78;;;4.20;100.00
44140;BME280;29803;51.048;4.686;2022-10-10T02:45:30;101338.91;;;4.19;100.00
44140;BME280;29803;51.048;4.686;2022-10-10T02:48:02;101333.81;;;4.15;100.00
44140;BME280;29803;51.048;4.686;2022-10-10T02:50:33;101327.88;;;4.12;100.00
44140;BME280;29803;51.048;4.686;2022-10-10T02:53:04;101332.44;;;4.10;100.00
44140;BME280;29803;51.048;4.686;2022-10-10T02:55:34;101329.06;;;4.08;100.00
44140;BME280;29803;51.048;4.686;2022-10-10T02:58:05;101326.50;;;4.06;100.00
44140;BME280;29803;51.048;4.686;2022-10-10T03:00:35;101329.28;;;4.05;100.00
44140;BME280;29803;51.048;4.686;2022-10-10T03:03:05;101329.28;;;4.05;100.00
44140;BME280;29803;51.048;4.686;2022-10-10T03:05:36;101330.13;;;4.05;100.00
44140;BME280;29803;51.048;4.686;2022-10-10T03:08:06;101321.19;;;4.06;100.00
44140;BME280;29803;51.048;4.686;2022-10-10T03:10:37;101322.06;;;4.07;100.00
44140;BME280;29803;51.048;4.686;2022-10-10T03:13:07;101316.75;;;4.07;100.00
44140;BME280;29803;51.048;4.686;2022-10-10T03:15:38;101318.66;;;4.05;100.00
44140;BME280;29803;51.048;4.686;2022-10-10T03:18:08;101315.28;;;4.03;100.00
44140;BME280;29803;51.048;4.686;2022-10-10T03:20:39;101312.63;;;4.03;100.00
44140;BME280;29803;51.048;4.686;2022-10-10T03:23:09;101320.59;;;4.03;100.00
44140;BME280;29803;51.048;4.686;2022-10-10T03:25:41;101319.75;;;4.02;100.00
44140;BME280;29803;51.048;4.686;2022-10-10T03:28:12;101320.25;;;4.07;100.00
44140;BME280;29803;51.048;4.686;2022-10-10T03:30:43;101316.00;;;4.05;100.00
44140;BME280;29803;51.048;4.686;2022-10-10T03:33:13;101320.47;;;4.04;100.00
44140;BME280;29803;51.048;4.686;2022-10-10T03:35:44;101322.41;;;4.02;100.00
44140;BME280;29803;51.048;4.686;2022-10-10T03:38:14;101318.03;;;4.01;100.00
44140;BME280;29803;51.048;4.686;2022-10-10T03:40:45;101317.19;;;4.01;100.00
44140;BME280;29803;51.048;4.686;2022-10-10T03:43:15;101314.44;;;4.02;100.00
44140;BME280;29803;51.048;4.686;2022-10-10T03:45:46;101316.97;;;4.04;100.00
44140;BME280;29803;51.048;4.686;2022-10-10T03:48:19;101328.22;;;4.07;100.00
44140;BME280;29803;51.048;4.686;2022-10-10T03:50:50;101322.66;;;4.10;100.00
44140;BME280;29803;51.048;4.686;2022-10-10T03:53:20;101317.47;;;4.09;100.00
44140;BME280;29803;51.048;4.686;2022-10-10T03:55:52;101315.78;;;4.08;100.00
44140;BME280;29803;51.048;4.686;2022-10-10T03:58:22;101320.34;;;4.06;100.00
44140;BME280;29803;51.048;4.686;2022-10-10T04:00:55;101318.03;;;4.01;100.00
44140;BME280;29803;51.048;4.686;2022-10-10T04:03:26;101319.00;;;4.00;100.00
44140;BME280;29803;51.048;4.686;2022-10-10T04:05:57;101307.66;;;3.98;100.00
44140;BME280;29803;51.048;4.686;2022-10-10T04:08:28;101314.88;;;3.96;100.00
44140;BME280;29803;51.048;4.686;2022-10-10T04:10:59;101313.28;;;3.94;100.00
44140;BME280;29803;51.048;4.686;2022-10-10T04:13:30;101314.03;;;3.96;100.00
44140;BME280;29803;51.048;4.686;2022-10-10T04:16:00;101315.84;;;3.95;100.00
44140;BME280;29803;51.048;4.686;2022-10-10T04:18:31;101319.56;;;3.93;100.00
44140;BME280;29803;51.048;4.686;2022-10-10T04:21:03;101324.97;;;3.91;100.00
44140;BME280;29803;51.048;4.686;2022-10-10T04:23:33;101320.41;;;3.93;100.00
44140;BME280;29803;51.048;4.686;2022-10-10T04:26:04;101313.09;;;3.97;100.00
44140;BME280;29803;51.048;4.686;2022-10-10T04:28:35;101320.09;;;3.98;100.00
44140;BME280;29803;51.048;4.686;2022-10-10T04:31:05;101317.44;;;3.98;100.00
44140;BME280;29803;51.048;4.686;2022-10-10T04:33:36;101320.28;;;3.95;100.00
44140;BME280;29803;51.048;4.686;2022-10-10T04:36:06;101312.44;;;3.93;100.00
44140;BME280;29803;51.048;4.686;2022-10-10T04:38:37;101314.88;;;3.96;100.00
44140;BME280;29803;51.048;4.686;2022-10-10T04:41:07;101315.16;;;4.04;100.00
44140;BME280;29803;51.048;4.686;2022-10-10T04:43:38;101318.31;;;4.09;100.00
44140;BME280;29803;51.048;4.686;2022-10-10T04:46:08;101325.22;;;4.12;100.00
44140;BME280;29803;51.048;4.686;2022-10-10T04:48:39;101320.00;;;4.10;100.00
44140;BME280;29803;51.048;4.686;2022-10-10T04:51:09;101325.66;;;4.06;100.00
44140;BME280;29803;51.048;4.686;2022-10-10T04:53:40;101321.56;;;4.02;100.00
44140;BME280;29803;51.048;4.686;2022-10-10T04:56:10;101321.06;;;3.97;100.00
44140;BME280;29803;51.048;4.686;2022-10-10T04:58:41;101318.59;;;3.94;100.00
44140;BME280;29803;51.048;4.686;2022-10-10T05:01:11;101329.22;;;3.94;100.00
44140;BME280;29803;51.048;4.686;2022-10-10T05:03:42;101326.56;;;3.94;100.00
44140;BME280;29803;51.048;4.686;2022-10-10T05:06:12;101334.19;;;3.98;100.00
44140;BME280;29803;51.048;4.686;2022-10-10T05:08:43;101326.13;;;4.00;100.00
44140;BME280;29803;51.048;4.686;2022-10-10T05:11:13;101332.50;;;3.97;100.00
44140;BME280;29803;51.048;4.686;2022-10-10T05:13:43;101326.56;;;3.94;100.00
44140;BME280;29803;51.048;4.686;2022-10-10T05:16:14;101329.34;;;3.92;100.00
44140;BME280;29803;51.048;4.686;2022-10-10T05:18:45;101326.91;;;3.89;100.00
44140;BME280;29803;51.048;4.686;2022-10-10T05:21:16;101325.31;;;3.86;100.00
44140;BME280;29803;51.048;4.686;2022-10-10T05:23:46;101327.44;;;3.81;100.00
44140;BME280;29803;51.048;4.686;2022-10-10T05:26:17;101324.56;;;3.84;100.00
44140;BME280;29803;51.048;4.686;2022-10-10T05:28:49;101326.38;;;3.84;100.00
44140;BME280;29803;51.048;4.686;2022-10-10T05:31:19;101323.84;;;3.82;100.00
44140;BME280;29803;51.048;4.686;2022-10-10T05:33:50;101321.41;;;3.79;100.00
44140;BME280;29803;51.048;4.686;2022-10-10T05:36:20;101328.31;;;3.82;100.00
44140;BME280;29803;51.048;4.686;2022-10-10T05:38:50;101323.84;;;3.82;100.00
44140;BME280;29803;51.048;4.686;2022-10-10T05:41:21;101326.19;;;3.87;100.00
44140;BME280;29803;51.048;4.686;2022-10-10T05:43:51;101322.22;;;3.93;100.00
44140;BME280;29803;51.048;4.686;2022-10-10T05:46:22;101325.28;;;3.99;100.00
44140;BME280;29803;51.048;4.686;2022-10-10T05:48:53;101324.31;;;4.00;100.00
44140;BME280;29803;51.048;4.686;2022-10-10T05:51:24;101323.25;;;4.03;100.00
44140;BME280;29803;51.048;4.686;2022-10-10T05:53:54;101326.50;;;4.06;100.00
44140;BME280;29803;51.048;4.686;2022-10-10T05:56:26;101329.06;;;4.08;100.00
44140;BME280;29803;51.048;4.686;2022-10-10T05:58:56;101323.75;;;4.08;100.00
44140;BME280;29803;51.048;4.686;2022-10-10T06:01:27;101329.34;;;4.16;100.00
44140;BME280;29803;51.048;4.686;2022-10-10T06:03:57;101332.06;;;4.27;100.00
44140;BME280;29803;51.048;4.686;2022-10-10T06:06:28;101335.66;;;4.26;100.00
44140;BME280;29803;51.048;4.686;2022-10-10T06:08:58;101336.75;;;4.24;100.00
44140;BME280;29803;51.048;4.686;2022-10-10T06:11:29;101338.22;;;4.28;100.00
44140;BME280;29803;51.048;4.686;2022-10-10T06:13:59;101330.84;;;4.31;100.00
44140;BME280;29803;51.048;4.686;2022-10-10T06:16:30;101335.09;;;4.34;100.00
44140;BME280;29803;51.048;4.686;2022-10-10T06:19:26;101333.59;;;4.43;100.00
44140;BME280;29803;51.048;4.686;2022-10-10T06:22:07;101341.22;;;4.47;100.00
44140;BME280;29803;51.048;4.686;2022-10-10T06:24:43;101334.59;;;4.53;100.00
44140;BME280;29803;51.048;4.686;2022-10-10T06:27:20;101336.91;;;4.57;100.00
44140;BME280;29803;51.048;4.686;2022-10-10T06:30:09;101346.59;;;4.70;100.00
44140;BME280;29803;51.048;4.686;2022-10-10T06:32:51;101348.78;;;4.76;100.00
44140;BME280;29803;51.048;4.686;2022-10-10T06:35:25;101355.56;;;4.80;100.00
44140;BME280;29803;51.048;4.686;2022-10-10T06:37:57;101354.38;;;4.84;100.00
44140;BME280;29803;51.048;4.686;2022-10-10T06:40:38;101363.97;;;5.09;100.00
44140;BME280;29803;51.048;4.686;2022-10-10T06:43:40;101357.59;;;5.23;100.00
44140;BME280;29803;51.048;4.686;2022-10-10T06:46:35;101367.50;;;5.32;100.00
44140;BME280;29803;51.048;4.686;2022-10-10T06:49:21;101373.44;;;5.46;100.00
44140;BME280;29803;51.048;4.686;2022-10-10T06:52:26;101365.19;;;5.72;100.00
44140;BME280;29803;51.048;4.686;2022-10-10T06:55:01;101372.81;;;6.10;100.00
44140;BME280;29803;51.048;4.686;2022-10-10T06:57:36;101379.59;;;6.58;100.00
44140;BME280;29803;51.048;4.686;2022-10-10T07:00:29;101374.31;;;7.30;100.00
44140;BME280;29803;51.048;4.686;2022-10-10T07:03:18;101373.09;;;8.15;100.00
44140;BME280;29803;51.048;4.686;2022-10-10T07:06:19;101378.91;;;8.97;100.00
44140;BME280;29803;51.048;4.686;2022-10-10T07:12:16;101379.88;;;10.00;100.00
44140;BME280;29803;51.048;4.686;2022-10-10T07:15:02;101378.44;;;10.51;100.00
44140;BME280;29803;51.048;4.686;2022-10-10T07:17:43;101377.97;;;11.43;100.00
44140;BME280;29803;51.048;4.686;2022-10-10T07:20:30;101373.00;;;11.82;100.00
44140;BME280;29803;51.048;4.686;2022-10-10T07:23:07;101373.63;;;12.18;100.00
44140;BME280;29803;51.048;4.686;2022-10-10T07:26:11;101379.09;;;12.51;100.00
44140;BME280;29803;51.048;4.686;2022-10-10T07:28:57;101384.00;;;12.80;100.00
44140;BME280;29803;51.048;4.686;2022-10-10T07:31:53;101386.66;;;13.13;100.00
44140;BME280;29803;51.048;4.686;2022-10-10T07:34:42;101397.31;;;13.23;100.00
44140;BME280;29803;51.048;4.686;2022-10-10T07:37:25;101399.81;;;13.24;100.00
44140;BME280;29803;51.048;4.686;2022-10-10T07:40:12;101399.47;;;13.19;100.00
44140;BME280;29803;51.048;4.686;2022-10-10T07:42:51;101392.94;;;13.05;100.00
44140;BME280;29803;51.048;4.686;2022-10-10T07:45:38;101394.72;;;13.54;100.00
44140;BME280;29803;51.048;4.686;2022-10-10T07:48:32;101396.53;;;14.17;100.00
44140;BME280;29803;51.048;4.686;2022-10-10T07:51:11;101408.31;;;14.47;100.00
44140;BME280;29803;51.048;4.686;2022-10-10T07:54:04;101404.13;;;14.05;100.00
44140;BME280;29803;51.048;4.686;2022-10-10T07:56:58;101400.44;;;14.06;100.00
44140;BME280;29803;51.048;4.686;2022-10-10T08:00:07;101406.19;;;14.34;100.00
44140;BME280;29803;51.048;4.686;2022-10-10T08:02:44;101404.63;;;14.40;100.00
44140;BME280;29803;51.048;4.686;2022-10-10T08:05:19;101406.47;;;14.16;100.00
44140;BME280;29803;51.048;4.686;2022-10-10T08:07:55;101404.44;;;14.18;100.00
44140;BME280;29803;51.048;4.686;2022-10-10T08:10:48;101403.34;;;14.67;100.00
44140;BME280;29803;51.048;4.686;2022-10-10T08:13:42;101402.63;;;15.11;100.00
44140;BME280;29803;51.048;4.686;2022-10-10T08:16:28;101403.34;;;15.27;100.00
44140;BME280;29803;51.048;4.686;2022-10-10T08:19:13;101406.69;;;15.67;100.00
44140;BME280;29803;51.048;4.686;2022-10-10T08:21:44;101415.66;;;16.34;100.00
44140;BME280;29803;51.048;4.686;2022-10-10T08:24:21;101424.75;;;16.62;100.00
44140;BME280;29803;51.048;4.686;2022-10-10T08:27:09;101422.38;;;16.95;100.00
44140;BME280;29803;51.048;4.686;2022-10-10T08:29:47;101426.25;;;16.86;100.00
44140;BME280;29803;51.048;4.686;2022-10-10T08:32:38;101426.16;;;16.58;100.00
44140;BME280;29803;51.048;4.686;2022-10-10T08:35:30;101427.06;;;16.29;100.00
44140;BME280;29803;51.048;4.686;2022-10-10T08:38:30;101419.00;;;16.36;100.00
44140;BME280;29803;51.048;4.686;2022-10-10T08:51:06;101421.72;;;17.99;100.00
44140;BME280;29803;51.048;4.686;2022-10-10T08:54:15;101436.06;;;18.27;100.00
44140;BME280;29803;51.048;4.686;2022-10-10T08:57:03;101441.75;;;18.46;100.00
44140;BME280;29803;51.048;4.686;2022-10-10T08:59:42;101433.75;;;18.31;100.00
44140;BME280;29803;51.048;4.686;2022-10-10T09:02:54;101436.53;;;17.68;100.00
44140;BME280;29803;51.048;4.686;2022-10-10T09:09:13;101454.75;;;16.97;100.00
44140;BME280;29803;51.048;4.686;2022-10-10T09:12:29;101453.81;;;16.90;100.00
44140;BME280;29803;51.048;4.686;2022-10-10T09:18:34;101450.75;;;16.42;100.00
44140;BME280;29803;51.048;4.686;2022-10-10T09:21:44;101447.63;;;16.23;100.00
44140;BME280;29803;51.048;4.686;2022-10-10T09:31:22;101457.25;;;15.82;100.00
44140;BME280;29803;51.048;4.686;2022-10-10T09:34:19;101467.31;;;16.17;100.00
44140;BME280;29803;51.048;4.686;2022-10-10T09:37:20;101476.03;;;16.49;100.00
44140;BME280;29803;51.048;4.686;2022-10-10T09:40:35;101476.63;;;16.44;100.00
44140;BME280;29803;51.048;4.686;2022-10-10T09:43:41;101478.25;;;16.60;100.00
44140;BME280;29803;51.048;4.686;2022-10-10T09:46:30;101466.25;;;16.84;100.00
44140;BME280;29803;51.048;4.686;2022-10-10T09:49:26;101471.78;;;17.12;100.00
44140;BME280;29803;51.048;4.686;2022-10-10T09:52:30;101482.00;;;17.38;100.00
44140;BME280;29803;51.048;4.686;2022-10-10T09:55:39;101479.59;;;17.50;100.00
44140;BME280;29803;51.048;4.686;2022-10-10T09:58:51;101484.72;;;17.66;100.00
44140;BME280;29803;51.048;4.686;2022-10-10T10:01:38;101482.09;;;17.73;100.00
44140;BME280;29803;51.048;4.686;2022-10-10T10:04:14;101496.53;;;17.80;100.00
44140;BME280;29803;51.048;4.686;2022-10-10T10:13:32;101487.50;;;18.42;100.00
44140;BME280;29803;51.048;4.686;2022-10-10T10:16:38;101483.56;;;18.51;100.00
44140;BME280;29803;51.048;4.686;2022-10-10T10:19:46;101485.69;;;18.56;100.00
44140;BME280;29803;51.048;4.686;2022-10-10T10:22:47;101489.78;;;18.86;100.00
44140;BME280;29803;51.048;4.686;2022-10-10T10:25:37;101492.78;;;19.31;100.00
44140;BME280;29803;51.048;4.686;2022-10-10T10:28:41;101493.19;;;19.41;100.00
44140;BME280;29803;51.048;4.686;2022-10-10T10:32:04;101491.97;;;19.64;100.00
44140;BME280;29803;51.048;4.686;2022-10-10T10:35:22;101499.06;;;19.72;100.00
44140;BME280;29803;51.048;4.686;2022-10-10T10:45:09;101497.13;;;20.18;100.00
44140;BME280;29803;51.048;4.686;2022-10-10T11:04:50;101507.06;;;19.73;100.00
44140;BME280;29803;51.048;4.686;2022-10-10T11:07:34;101505.59;;;19.64;100.00
44140;BME280;29803;51.048;4.686;2022-10-10T11:16:31;101520.44;;;19.95;100.00
44140;BME280;29803;51.048;4.686;2022-10-10T11:22:28;101509.31;;;20.74;100.00
44140;BME280;29803;51.048;4.686;2022-10-10T11:32:10;101515.13;;;20.20;100.00
44140;BME280;29803;51.048;4.686;2022-10-10T11:35:26;101525.00;;;20.14;100.00
44140;BME280;29803;51.048;4.686;2022-10-10T11:50:48;101528.41;;;19.89;100.00
44140;BME280;29803;51.048;4.686;2022-10-10T11:53:41;101537.59;;;20.02;100.00
44140;BME280;29803;51.048;4.686;2022-10-10T11:56:48;101535.50;;;20.04;100.00
44140;BME280;29803;51.048;4.686;2022-10-10T11:59:42;101541.16;;;20.09;100.00
44140;BME280;29803;51.048;4.686;2022-10-10T12:02:49;101546.38;;;20.10;100.00
44140;BME280;29803;51.048;4.686;2022-10-10T12:05:54;101536.13;;;19.99;100.00
44140;BME280;29803;51.048;4.686;2022-10-10T12:08:55;101533.41;;;19.92;100.00
44140;BME280;29803;51.048;4.686;2022-10-10T12:12:01;101540.53;;;19.67;100.00
44140;BME280;29803;51.048;4.686;2022-10-10T12:14:53;101551.81;;;19.57;100.00
44140;BME280;29803;51.048;4.686;2022-10-10T12:17:57;101558.75;;;19.53;100.00
44140;BME280;29803;51.048;4.686;2022-10-10T12:21:01;101558.31;;;19.50;100.00
44140;BME280;29803;51.048;4.686;2022-10-10T12:23:42;101555.78;;;19.28;100.00
44140;BME280;29803;51.048;4.686;2022-10-10T12:29:43;101558.91;;;19.25;100.00
44140;BME280;29803;51.048;4.686;2022-10-10T12:32:45;101560.59;;;19.33;100.00
44140;BME280;29803;51.048;4.686;2022-10-10T12:35:45;101563.50;;;19.31;100.00
44140;BME280;29803;51.048;4.686;2022-10-10T12:41:17;101561.81;;;19.24;100.00
44140;BME280;29803;51.048;4.686;2022-10-10T12:47:43;101566.63;;;19.22;100.00
44140;BME280;29803;51.048;4.686;2022-10-10T12:50:58;101563.91;;;19.22;100.00
44140;BME280;29803;51.048;4.686;2022-10-10T12:53:51;101566.78;;;19.07;100.00
44140;BME280;29803;51.048;4.686;2022-10-10T12:56:48;101564.44;;;18.91;100.00
44140;BME280;29803;51.048;4.686;2022-10-10T12:59:38;101577.66;;;18.94;100.00
44140;BME280;29803;51.048;4.686;2022-10-10T13:02:50;101581.41;;;18.93;100.00
44140;BME280;29803;51.048;4.686;2022-10-10T13:05:30;101573.03;;;18.94;100.00
44140;BME280;29803;51.048;4.686;2022-10-10T13:08:15;101585.97;;;18.92;100.00
44140;BME280;29803;51.048;4.686;2022-10-10T13:11:19;101581.78;;;18.83;100.00
44140;BME280;29803;51.048;4.686;2022-10-10T13:16:56;101575.53;;;18.89;100.00
44140;BME280;29803;51.048;4.686;2022-10-10T13:19:51;101580.00;;;19.10;100.00
44140;BME280;29803;51.048;4.686;2022-10-10T13:22:36;101585.88;;;19.27;100.00
44140;BME280;29803;51.048;4.686;2022-10-10T13:25:21;101601.38;;;19.26;100.00
44140;BME280;29803;51.048;4.686;2022-10-10T13:28:15;101594.44;;;19.17;100.00
44140;BME280;29803;51.048;4.686;2022-10-10T13:34:26;101617.91;;;19.31;100.00
44140;BME280;29803;51.048;4.686;2022-10-10T13:37:25;101614.75;;;19.21;100.00
44140;BME280;29803;51.048;4.686;2022-10-10T13:40:18;101622.47;;;19.11;100.00
44140;BME280;29803;51.048;4.686;2022-10-10T13:46:19;101621.91;;;18.81;100.00
44140;BME280;29803;51.048;4.686;2022-10-10T13:49:32;101624.09;;;18.64;100.00
44140;BME280;29803;51.048;4.686;2022-10-10T13:52:41;101637.59;;;18.51;100.00
44140;BME280;29803;51.048;4.686;2022-10-10T13:56:19;101637.53;;;18.37;100.00
44140;BME280;29803;51.048;4.686;2022-10-10T14:01:57;101647.59;;;18.44;100.00
44140;BME280;29803;51.048;4.686;2022-10-10T14:04:56;101646.16;;;18.20;100.00
44140;BME280;29803;51.048;4.686;2022-10-10T14:08:11;101661.97;;;17.88;100.00
44140;BME280;29803;51.048;4.686;2022-10-10T14:11:32;101669.50;;;17.71;100.00
44140;BME280;29803;51.048;4.686;2022-10-10T14:14:31;101671.88;;;17.59;100.00
44140;BME280;29803;51.048;4.686;2022-10-10T14:17:18;101678.47;;;17.50;100.00
44140;BME280;29803;51.048;4.686;2022-10-10T14:20:11;101689.72;;;17.47;100.00
44140;BME280;29803;51.048;4.686;2022-10-10T14:22:53;101689.84;;;17.24;100.00
44140;BME280;29803;51.048;4.686;2022-10-10T14:25:38;101699.88;;;17.09;100.00
44140;BME280;29803;51.048;4.686;2022-10-10T14:28:46;101706.97;;;17.10;100.00
44140;BME280;29803;51.048;4.686;2022-10-10T14:31:26;101709.94;;;17.15;100.00
44140;BME280;29803;51.048;4.686;2022-10-10T14:34:14;101708.47;;;17.13;100.00
44140;BME280;29803;51.048;4.686;2022-10-10T14:40:37;101727.25;;;16.85;100.00
44140;BME280;29803;51.048;4.686;2022-10-10T14:43:31;101727.91;;;16.72;100.00
44140;BME280;29803;51.048;4.686;2022-10-10T14:46:41;101738.97;;;16.62;100.00
44140;BME280;29803;51.048;4.686;2022-10-10T14:52:27;101755.84;;;16.26;100.00
44140;BME280;29803;51.048;4.686;2022-10-10T14:55:17;101755.53;;;16.07;100.00
44140;BME280;29803;51.048;4.686;2022-10-10T14:58:22;101769.03;;;15.84;100.00
44140;BME280;29803;51.048;4.686;2022-10-10T15:01:09;101761.66;;;15.69;100.00
44140;BME280;29803;51.048;4.686;2022-10-10T15:04:07;101772.00;;;15.66;100.00
44140;BME280;29803;51.048;4.686;2022-10-10T15:06:45;101772.88;;;15.58;100.00
44140;BME280;29803;51.048;4.686;2022-10-10T15:09:30;101784.22;;;15.53;100.00
44140;BME280;29803;51.048;4.686;2022-10-10T15:12:06;101787.63;;;15.47;100.00
44140;BME280;29803;51.048;4.686;2022-10-10T15:14:58;101794.25;;;15.37;100.00
44140;BME280;29803;51.048;4.686;2022-10-10T15:17:38;101800.72;;;15.27;100.00
44140;BME280;29803;51.048;4.686;2022-10-10T15:20:11;101801.22;;;15.15;100.00
44140;BME280;29803;51.048;4.686;2022-10-10T15:23:04;101811.09;;;14.91;100.00
44140;BME280;29803;51.048;4.686;2022-10-10T15:25:43;101818.69;;;14.80;100.00
44140;BME280;29803;51.048;4.686;2022-10-10T15:28:29;101832.91;;;14.82;100.00
44140;BME280;29803;51.048;4.686;2022-10-10T15:31:16;101834.91;;;14.80;100.00
44140;BME280;29803;51.048;4.686;2022-10-10T15:33:53;101839.66;;;14.77;100.00
44140;BME280;29803;51.048;4.686;2022-10-10T15:36:46;101844.19;;;14.69;100.00
44140;BME280;29803;51.048;4.686;2022-10-10T15:39:35;101853.78;;;14.47;100.00
44140;BME280;29803;51.048;4.686;2022-10-10T15:42:10;101855.09;;;14.35;100.00
44140;BME280;29803;51.048;4.686;2022-10-10T15:45:07;101863.88;;;14.29;100.00
44140;BME280;29803;51.048;4.686;2022-10-10T15:47:50;101869.56;;;14.09;100.00
44140;BME280;29803;51.048;4.686;2022-10-10T15:50:32;101892.06;;;13.84;100.00
44140;BME280;29803;51.048;4.686;2022-10-10T15:53:10;101893.31;;;13.63;100.00
44140;BME280;29803;51.048;4.686;2022-10-10T15:55:58;101905.50;;;13.41;100.00
44140;BME280;29803;51.048;4.686;2022-10-10T15:59:03;101904.00;;;13.21;100.00
44140;BME280;29803;51.048;4.686;2022-10-10T16:01:52;101904.72;;;13.05;100.00
44140;BME280;29803;51.048;4.686;2022-10-10T16:04:46;101913.56;;;12.98;100.00
44140;BME280;29803;51.048;4.686;2022-10-10T16:07:29;101920.44;;;12.92;100.00
44140;BME280;29803;51.048;4.686;2022-10-10T16:10:14;101931.84;;;12.86;100.00
44140;BME280;29803;51.048;4.686;2022-10-10T16:13:07;101934.16;;;12.81;100.00
44140;BME280;29803;51.048;4.686;2022-10-10T16:15:59;101938.97;;;12.77;100.00
44140;BME280;29803;51.048;4.686;2022-10-10T16:18:34;101940.03;;;12.84;100.00
44140;BME280;29803;51.048;4.686;2022-10-10T16:21:11;101939.19;;;12.84;100.00